sensor_id;sensor_type;location;lat;lon;timestamp;P1;durP1;ratioP1;P2;durP2;ratioP2
30647;SDS011;17683;53.360;9.736;2023-02-21T00:01:50;15.68;;;11.20;;
30647;SDS011;17683;53.360;9.736;2023-02-21T00:04:34;15.75;;;11.57;;
30647;SDS011;17683;53.360;9.736;2023-02-21T00:07:19;14.90;;;11.00;;
30647;SDS011;17683;53.360;9.736;2023-02-21T00:10:04;21.00;;;12.23;;
30647;SDS011;17683;53.360;9.736;2023-02-21T00:15:33;19.08;;;11.15;;
30647;SDS011;17683;53.360;9.736;2023-02-21T00:18:17;14.93;;;11.85;;
30647;SDS011;17683;53.360;9.736;2023-02-21T00:23:46;15.18;;;10.27;;
30647;SDS011;17683;53.360;9.736;2023-02-21T00:26:30;19.83;;;10.80;;
30647;SDS011;17683;53.360;9.736;2023-02-21T00:29:15;17.38;;;11.77;;
30647;SDS011;17683;53.360;9.736;2023-02-21T00:34:44;18.13;;;10.10;;
30647;SDS011;17683;53.360;9.736;2023-02-21T00:37:28;14.13;;;11.23;;
30647;SDS011;17683;53.360;9.736;2023-02-21T00:40:13;15.90;;;9.55;;
30647;SDS011;17683;53.360;9.736;2023-02-21T00:42:58;14.82;;;9.38;;
30647;SDS011;17683;53.360;9.736;2023-02-21T00:45:42;20.50;;;10.52;;
30647;SDS011;17683;53.360;9.736;2023-02-21T00:51:11;12.82;;;10.05;;
30647;SDS011;17683;53.360;9.736;2023-02-21T00:53:55;17.55;;;9.68;;
30647;SDS011;17683;53.360;9.736;2023-02-21T00:56:40;16.27;;;8.95;;
30647;SDS011;17683;53.360;9.736;2023-02-21T00:59:24;11.48;;;7.95;;
30647;SDS011;17683;53.360;9.736;2023-02-21T01:04:53;10.80;;;6.80;;
30647;SDS011;17683;53.360;9.736;2023-02-21T01:07:38;12.38;;;8.02;;
30647;SDS011;17683;53.360;9.736;2023-02-21T01:10:22;13.30;;;7.85;;
30647;SDS011;17683;53.360;9.736;2023-02-21T01:13:07;12.00;;;7.90;;
30647;SDS011;17683;53.360;9.736;2023-02-21T01:15:51;12.13;;;7.40;;
30647;SDS011;17683;53.360;9.736;2023-02-21T01:18:36;9.77;;;6.68;;
30647;SDS011;17683;53.360;9.736;2023-02-21T01:21:20;11.57;;;7.00;;
30647;SDS011;17683;53.360;9.736;2023-02-21T01:24:05;8.73;;;7.38;;
30647;SDS011;17683;53.360;9.736;2023-02-21T01:26:51;8.30;;;6.43;;
30647;SDS011;17683;53.360;9.736;2023-02-21T01:29:35;10.18;;;6.47;;
30647;SDS011;17683;53.360;9.736;2023-02-21T01:32:20;9.43;;;6.43;;
30647;SDS011;17683;53.360;9.736;2023-02-21T01:35:04;8.73;;;6.45;;
30647;SDS011;17683;53.360;9.736;2023-02-21T01:37:49;11.68;;;6.55;;
30647;SDS011;17683;53.360;9.736;2023-02-21T01:40:35;8.30;;;5.93;;
30647;SDS011;17683;53.360;9.736;2023-02-21T01:43:22;9.65;;;6.53;;
30647;SDS011;17683;53.360;9.736;2023-02-21T01:46:14;8.10;;;5.68;;
30647;SDS011;17683;53.360;9.736;2023-02-21T01:49:07;8.77;;;5.65;;
30647;SDS011;17683;53.360;9.736;2023-02-21T01:51:58;8.18;;;6.05;;
30647;SDS011;17683;53.360;9.736;2023-02-21T01:54:45;7.90;;;5.40;;
30647;SDS011;17683;53.360;9.736;2023-02-21T01:57:32;7.28;;;5.50;;
30647;SDS011;17683;53.360;9.736;2023-02-21T02:00:18;8.05;;;5.72;;
30647;SDS011;17683;53.360;9.736;2023-02-21T02:03:06;6.80;;;5.43;;
30647;SDS011;17683;53.360;9.736;2023-02-21T02:06:00;7.53;;;5.43;;
30647;SDS011;17683;53.360;9.736;2023-02-21T02:08:47;5.43;;;4.82;;
30647;SDS011;17683;53.360;9.736;2023-02-21T02:17:28;7.22;;;4.95;;
30647;SDS011;17683;53.360;9.736;2023-02-21T02:26:13;6.00;;;4.65;;
30647;SDS011;17683;53.360;9.736;2023-02-21T02:45:47;6.20;;;4.30;;
30647;SDS011;17683;53.360;9.736;2023-02-21T02:50:52;12.45;;;4.60;;
30647;SDS011;17683;53.360;9.736;2023-02-21T02:53:19;4.85;;;4.20;;
30647;SDS011;17683;53.360;9.736;2023-02-21T02:55:59;4.38;;;3.78;;
30647;SDS011;17683;53.360;9.736;2023-02-21T02:58:29;5.03;;;3.53;;
30647;SDS011;17683;53.360;9.736;2023-02-21T03:01:08;4.53;;;3.30;;
30647;SDS011;17683;53.360;9.736;2023-02-21T03:09:14;4.97;;;3.30;;
30647;SDS011;17683;53.360;9.736;2023-02-21T03:12:05;3.90;;;3.20;;
30647;SDS011;17683;53.360;9.736;2023-02-21T03:14:45;4.25;;;2.92;;
30647;SDS011;17683;53.360;9.736;2023-02-21T03:17:19;4.03;;;2.60;;
30647;SDS011;17683;53.360;9.736;2023-02-21T03:19:49;5.05;;;3.00;;
30647;SDS011;17683;53.360;9.736;2023-02-21T03:22:19;3.45;;;2.50;;
30647;SDS011;17683;53.360;9.736;2023-02-21T03:24:48;3.72;;;2.35;;
30647;SDS011;17683;53.360;9.736;2023-02-21T03:27:15;3.65;;;2.55;;
30647;SDS011;17683;53.360;9.736;2023-02-21T03:29:44;4.30;;;2.08;;
30647;SDS011;17683;53.360;9.736;2023-02-21T03:32:21;2.30;;;2.10;;
30647;SDS011;17683;53.360;9.736;2023-02-21T03:34:51;3.05;;;1.55;;
30647;SDS011;17683;53.360;9.736;2023-02-21T03:37:19;6.82;;;1.77;;
30647;SDS011;17683;53.360;9.736;2023-02-21T03:39:45;2.20;;;1.50;;
30647;SDS011;17683;53.360;9.736;2023-02-21T03:42:11;2.58;;;1.90;;
30647;SDS011;17683;53.360;9.736;2023-02-21T03:44:36;2.00;;;1.80;;
30647;SDS011;17683;53.360;9.736;2023-02-21T03:47:02;2.50;;;1.67;;
30647;SDS011;17683;53.360;9.736;2023-02-21T03:49:28;4.15;;;2.28;;
30647;SDS011;17683;53.360;9.736;2023-02-21T03:51:53;2.28;;;1.70;;
30647;SDS011;17683;53.360;9.736;2023-02-21T03:54:19;3.58;;;1.58;;
30647;SDS011;17683;53.360;9.736;2023-02-21T03:56:45;2.83;;;1.60;;
30647;SDS011;17683;53.360;9.736;2023-02-21T03:59:10;2.90;;;1.45;;
30647;SDS011;17683;53.360;9.736;2023-02-21T04:01:36;2.65;;;1.40;;
30647;SDS011;17683;53.360;9.736;2023-02-21T04:04:02;1.58;;;1.30;;
30647;SDS011;17683;53.360;9.736;2023-02-21T04:06:28;2.53;;;1.25;;
30647;SDS011;17683;53.360;9.736;2023-02-21T04:08:53;1.73;;;1.20;;
30647;SDS011;17683;53.360;9.736;2023-02-21T04:11:19;2.28;;;1.08;;
30647;SDS011;17683;53.360;9.736;2023-02-21T04:13:46;1.42;;;1.15;;
30647;SDS011;17683;53.360;9.736;2023-02-21T04:16:12;2.08;;;1.10;;
30647;SDS011;17683;53.360;9.736;2023-02-21T04:18:37;1.55;;;1.30;;
30647;SDS011;17683;53.360;9.736;2023-02-21T04:21:03;1.33;;;1.23;;
30647;SDS011;17683;53.360;9.736;2023-02-21T04:23:29;1.52;;;1.00;;
30647;SDS011;17683;53.360;9.736;2023-02-21T04:25:54;2.67;;;1.13;;
30647;SDS011;17683;53.360;9.736;2023-02-21T04:28:20;1.45;;;1.10;;
30647;SDS011;17683;53.360;9.736;2023-02-21T04:30:46;1.23;;;1.10;;
30647;SDS011;17683;53.360;9.736;2023-02-21T04:33:12;1.17;;;1.02;;
30647;SDS011;17683;53.360;9.736;2023-02-21T04:35:37;1.50;;;1.40;;
30647;SDS011;17683;53.360;9.736;2023-02-21T04:38:03;1.00;;;0.90;;
30647;SDS011;17683;53.360;9.736;2023-02-21T04:40:29;7.22;;;1.40;;
30647;SDS011;17683;53.360;9.736;2023-02-21T04:42:54;1.85;;;0.93;;
30647;SDS011;17683;53.360;9.736;2023-02-21T04:45:20;1.63;;;0.90;;
30647;SDS011;17683;53.360;9.736;2023-02-21T04:47:46;0.70;;;0.70;;
30647;SDS011;17683;53.360;9.736;2023-02-21T04:50:12;1.08;;;0.98;;
30647;SDS011;17683;53.360;9.736;2023-02-21T04:52:37;2.47;;;0.95;;
30647;SDS011;17683;53.360;9.736;2023-02-21T04:55:05;1.80;;;1.00;;
30647;SDS011;17683;53.360;9.736;2023-02-21T04:57:31;0.98;;;0.88;;
30647;SDS011;17683;53.360;9.736;2023-02-21T04:59:58;1.13;;;0.88;;
30647;SDS011;17683;53.360;9.736;2023-02-21T05:02:25;2.58;;;1.27;;
30647;SDS011;17683;53.360;9.736;2023-02-21T05:04:51;0.73;;;0.70;;
30647;SDS011;17683;53.360;9.736;2023-02-21T05:07:17;1.70;;;0.73;;
30647;SDS011;17683;53.360;9.736;2023-02-21T05:09:43;1.17;;;1.05;;
30647;SDS011;17683;53.360;9.736;2023-02-21T05:12:08;1.33;;;0.82;;
30647;SDS011;17683;53.360;9.736;2023-02-21T05:14:36;1.27;;;1.10;;
30647;SDS011;17683;53.360;9.736;2023-02-21T05:17:06;1.70;;;0.90;;
30647;SDS011;17683;53.360;9.736;2023-02-21T05:19:32;2.75;;;1.33;;
30647;SDS011;17683;53.360;9.736;2023-02-21T05:21:59;1.55;;;1.15;;
30647;SDS011;17683;53.360;9.736;2023-02-21T05:24:27;1.73;;;0.95;;
30647;SDS011;17683;53.360;9.736;2023-02-21T05:26:54;2.05;;;0.70;;
30647;SDS011;17683;53.360;9.736;2023-02-21T05:29:21;1.75;;;0.82;;
30647;SDS011;17683;53.360;9.736;2023-02-21T05:31:47;1.67;;;1.23;;
30647;SDS011;17683;53.360;9.736;2023-02-21T05:34:13;1.70;;;0.90;;
30647;SDS011;17683;53.360;9.736;2023-02-21T05:36:40;1.30;;;0.77;;
30647;SDS011;17683;53.360;9.736;2023-02-21T05:39:06;1.13;;;0.98;;
30647;SDS011;17683;53.360;9.736;2023-02-21T05:41:32;1.25;;;1.15;;
30647;SDS011;17683;53.360;9.736;2023-02-21T05:44:00;1.15;;;1.05;;
30647;SDS011;17683;53.360;9.736;2023-02-21T05:46:27;1.10;;;1.00;;
30647;SDS011;17683;53.360;9.736;2023-02-21T05:48:57;0.93;;;0.80;;
30647;SDS011;17683;53.360;9.736;2023-02-21T05:51:24;2.63;;;1.23;;
30647;SDS011;17683;53.360;9.736;2023-02-21T05:53:51;1.48;;;1.20;;
30647;SDS011;17683;53.360;9.736;2023-02-21T05:56:17;1.85;;;1.00;;
30647;SDS011;17683;53.360;9.736;2023-02-21T05:58:45;1.55;;;1.23;;
30647;SDS011;17683;53.360;9.736;2023-02-21T06:01:11;1.42;;;1.20;;
30647;SDS011;17683;53.360;9.736;2023-02-21T06:03:37;1.42;;;1.17;;
30647;SDS011;17683;53.360;9.736;2023-02-21T06:06:04;2.35;;;1.80;;
30647;SDS011;17683;53.360;9.736;2023-02-21T06:08:30;2.72;;;1.25;;
30647;SDS011;17683;53.360;9.736;2023-02-21T06:10:58;2.60;;;1.60;;
30647;SDS011;17683;53.360;9.736;2023-02-21T06:13:24;2.08;;;1.73;;
30647;SDS011;17683;53.360;9.736;2023-02-21T06:15:50;1.95;;;1.48;;
30647;SDS011;17683;53.360;9.736;2023-02-21T06:18:15;2.25;;;1.70;;
30647;SDS011;17683;53.360;9.736;2023-02-21T06:20:42;2.03;;;1.80;;
30647;SDS011;17683;53.360;9.736;2023-02-21T06:23:08;1.73;;;1.63;;
30647;SDS011;17683;53.360;9.736;2023-02-21T06:25:34;1.50;;;1.40;;
30647;SDS011;17683;53.360;9.736;2023-02-21T06:27:59;2.72;;;1.85;;
30647;SDS011;17683;53.360;9.736;2023-02-21T06:30:25;1.55;;;1.40;;
30647;SDS011;17683;53.360;9.736;2023-02-21T06:32:51;1.98;;;1.33;;
30647;SDS011;17683;53.360;9.736;2023-02-21T06:35:17;2.10;;;1.60;;
30647;SDS011;17683;53.360;9.736;2023-02-21T06:37:42;1.95;;;1.80;;
30647;SDS011;17683;53.360;9.736;2023-02-21T06:40:08;3.47;;;1.88;;
30647;SDS011;17683;53.360;9.736;2023-02-21T06:42:34;2.95;;;1.85;;
30647;SDS011;17683;53.360;9.736;2023-02-21T06:45:01;2.08;;;1.88;;
30647;SDS011;17683;53.360;9.736;2023-02-21T06:47:27;2.35;;;2.00;;
30647;SDS011;17683;53.360;9.736;2023-02-21T06:49:54;2.45;;;1.67;;
30647;SDS011;17683;53.360;9.736;2023-02-21T06:52:20;1.95;;;1.75;;
30647;SDS011;17683;53.360;9.736;2023-02-21T06:54:48;2.45;;;1.90;;
30647;SDS011;17683;53.360;9.736;2023-02-21T06:57:16;2.85;;;1.70;;
30647;SDS011;17683;53.360;9.736;2023-02-21T06:59:42;2.65;;;1.65;;
30647;SDS011;17683;53.360;9.736;2023-02-21T07:02:14;1.77;;;1.63;;
30647;SDS011;17683;53.360;9.736;2023-02-21T07:04:42;2.28;;;1.75;;
30647;SDS011;17683;53.360;9.736;2023-02-21T07:07:08;4.75;;;2.30;;
30647;SDS011;17683;53.360;9.736;2023-02-21T07:09:34;5.45;;;2.80;;
30647;SDS011;17683;53.360;9.736;2023-02-21T07:12:00;5.47;;;2.80;;
30647;SDS011;17683;53.360;9.736;2023-02-21T07:14:27;4.47;;;2.65;;
30647;SDS011;17683;53.360;9.736;2023-02-21T07:16:53;3.58;;;2.13;;
30647;SDS011;17683;53.360;9.736;2023-02-21T07:19:18;4.40;;;2.15;;
30647;SDS011;17683;53.360;9.736;2023-02-21T07:21:44;4.25;;;2.28;;
30647;SDS011;17683;53.360;9.736;2023-02-21T07:24:10;3.58;;;2.28;;
30647;SDS011;17683;53.360;9.736;2023-02-21T07:26:36;2.10;;;1.90;;
30647;SDS011;17683;53.360;9.736;2023-02-21T07:29:03;2.60;;;2.13;;
30647;SDS011;17683;53.360;9.736;2023-02-21T07:31:29;2.92;;;2.08;;
30647;SDS011;17683;53.360;9.736;2023-02-21T07:33:54;3.42;;;2.17;;
30647;SDS011;17683;53.360;9.736;2023-02-21T07:36:20;1.98;;;1.77;;
30647;SDS011;17683;53.360;9.736;2023-02-21T07:38:50;2.58;;;2.15;;
30647;SDS011;17683;53.360;9.736;2023-02-21T07:41:15;2.35;;;2.00;;
30647;SDS011;17683;53.360;9.736;2023-02-21T07:43:41;2.55;;;1.98;;
30647;SDS011;17683;53.360;9.736;2023-02-21T07:46:14;4.63;;;2.35;;
30647;SDS011;17683;53.360;9.736;2023-02-21T07:48:41;3.67;;;1.95;;
30647;SDS011;17683;53.360;9.736;2023-02-21T07:51:07;2.70;;;2.33;;
30647;SDS011;17683;53.360;9.736;2023-02-21T07:53:34;2.22;;;1.90;;
30647;SDS011;17683;53.360;9.736;2023-02-21T07:56:00;4.32;;;2.03;;
30647;SDS011;17683;53.360;9.736;2023-02-21T07:58:26;3.53;;;2.50;;
30647;SDS011;17683;53.360;9.736;2023-02-21T08:00:52;3.47;;;2.17;;
30647;SDS011;17683;53.360;9.736;2023-02-21T08:03:19;3.03;;;2.45;;
30647;SDS011;17683;53.360;9.736;2023-02-21T08:05:45;8.60;;;2.83;;
30647;SDS011;17683;53.360;9.736;2023-02-21T08:08:11;4.07;;;2.45;;
30647;SDS011;17683;53.360;9.736;2023-02-21T08:10:39;3.60;;;2.00;;
30647;SDS011;17683;53.360;9.736;2023-02-21T08:13:04;3.08;;;2.45;;
30647;SDS011;17683;53.360;9.736;2023-02-21T08:15:30;2.92;;;2.25;;
30647;SDS011;17683;53.360;9.736;2023-02-21T08:17:56;2.63;;;2.17;;
30647;SDS011;17683;53.360;9.736;2023-02-21T08:20:21;5.22;;;2.40;;
30647;SDS011;17683;53.360;9.736;2023-02-21T08:22:47;3.05;;;2.30;;
30647;SDS011;17683;53.360;9.736;2023-02-21T08:25:14;3.60;;;2.30;;
30647;SDS011;17683;53.360;9.736;2023-02-21T08:27:40;4.05;;;2.30;;
30647;SDS011;17683;53.360;9.736;2023-02-21T08:30:07;3.63;;;2.33;;
30647;SDS011;17683;53.360;9.736;2023-02-21T08:32:35;3.92;;;2.45;;
30647;SDS011;17683;53.360;9.736;2023-02-21T08:35:01;4.63;;;2.40;;
30647;SDS011;17683;53.360;9.736;2023-02-21T08:37:29;3.88;;;2.30;;
30647;SDS011;17683;53.360;9.736;2023-02-21T08:39:57;5.30;;;2.10;;
30647;SDS011;17683;53.360;9.736;2023-02-21T08:42:24;3.17;;;1.95;;
30647;SDS011;17683;53.360;9.736;2023-02-21T08:44:50;5.15;;;1.98;;
30647;SDS011;17683;53.360;9.736;2023-02-21T08:47:16;2.65;;;2.38;;
30647;SDS011;17683;53.360;9.736;2023-02-21T08:49:45;1.88;;;1.63;;
30647;SDS011;17683;53.360;9.736;2023-02-21T08:52:13;2.70;;;1.85;;
30647;SDS011;17683;53.360;9.736;2023-02-21T08:54:43;4.55;;;2.10;;
30647;SDS011;17683;53.360;9.736;2023-02-21T08:57:09;3.28;;;2.50;;
30647;SDS011;17683;53.360;9.736;2023-02-21T08:59:38;2.88;;;2.08;;
30647;SDS011;17683;53.360;9.736;2023-02-21T09:02:09;3.22;;;2.20;;
30647;SDS011;17683;53.360;9.736;2023-02-21T09:04:40;3.47;;;2.70;;
30647;SDS011;17683;53.360;9.736;2023-02-21T09:07:06;3.70;;;2.47;;
30647;SDS011;17683;53.360;9.736;2023-02-21T09:09:31;4.45;;;2.70;;
30647;SDS011;17683;53.360;9.736;2023-02-21T09:11:57;6.35;;;2.90;;
30647;SDS011;17683;53.360;9.736;2023-02-21T09:14:23;5.45;;;2.83;;
30647;SDS011;17683;53.360;9.736;2023-02-21T09:16:48;5.70;;;2.95;;
30647;SDS011;17683;53.360;9.736;2023-02-21T09:19:14;4.85;;;3.42;;
30647;SDS011;17683;53.360;9.736;2023-02-21T09:21:49;6.07;;;3.38;;
30647;SDS011;17683;53.360;9.736;2023-02-21T09:24:19;8.35;;;3.38;;
30647;SDS011;17683;53.360;9.736;2023-02-21T09:26:49;7.40;;;3.42;;
30647;SDS011;17683;53.360;9.736;2023-02-21T09:29:19;6.00;;;2.88;;
30647;SDS011;17683;53.360;9.736;2023-02-21T09:31:46;5.25;;;2.65;;
30647;SDS011;17683;53.360;9.736;2023-02-21T09:34:13;10.82;;;4.32;;
30647;SDS011;17683;53.360;9.736;2023-02-21T09:36:39;7.95;;;3.50;;
30647;SDS011;17683;53.360;9.736;2023-02-21T09:39:05;6.32;;;3.10;;
30647;SDS011;17683;53.360;9.736;2023-02-21T09:41:32;7.68;;;3.72;;
30647;SDS011;17683;53.360;9.736;2023-02-21T09:43:59;8.10;;;3.85;;
30647;SDS011;17683;53.360;9.736;2023-02-21T09:46:39;10.55;;;3.67;;
30647;SDS011;17683;53.360;9.736;2023-02-21T09:49:13;8.43;;;3.60;;
30647;SDS011;17683;53.360;9.736;2023-02-21T09:51:52;5.43;;;2.92;;
30647;SDS011;17683;53.360;9.736;2023-02-21T09:57:13;5.82;;;3.50;;
30647;SDS011;17683;53.360;9.736;2023-02-21T09:59:39;5.97;;;2.75;;
30647;SDS011;17683;53.360;9.736;2023-02-21T10:10:41;3.80;;;2.55;;
30647;SDS011;17683;53.360;9.736;2023-02-21T10:16:02;6.47;;;2.20;;
30647;SDS011;17683;53.360;9.736;2023-02-21T10:18:51;2.90;;;1.77;;
30647;SDS011;17683;53.360;9.736;2023-02-21T10:21:46;5.88;;;1.90;;
30647;SDS011;17683;53.360;9.736;2023-02-21T10:24:18;2.10;;;1.67;;
30647;SDS011;17683;53.360;9.736;2023-02-21T10:26:47;3.45;;;2.45;;
30647;SDS011;17683;53.360;9.736;2023-02-21T10:29:25;4.60;;;1.77;;
30647;SDS011;17683;53.360;9.736;2023-02-21T10:31:56;2.33;;;1.88;;
30647;SDS011;17683;53.360;9.736;2023-02-21T10:34:27;2.05;;;1.83;;
30647;SDS011;17683;53.360;9.736;2023-02-21T10:36:55;2.28;;;1.40;;
30647;SDS011;17683;53.360;9.736;2023-02-21T10:39:51;3.85;;;1.45;;
30647;SDS011;17683;53.360;9.736;2023-02-21T10:42:20;1.67;;;1.40;;
30647;SDS011;17683;53.360;9.736;2023-02-21T10:44:55;3.45;;;1.50;;
30647;SDS011;17683;53.360;9.736;2023-02-21T10:47:22;1.60;;;1.35;;
30647;SDS011;17683;53.360;9.736;2023-02-21T10:50:00;2.47;;;1.80;;
30647;SDS011;17683;53.360;9.736;2023-02-21T10:55:20;2.70;;;1.50;;
30647;SDS011;17683;53.360;9.736;2023-02-21T10:57:56;5.13;;;1.60;;
30647;SDS011;17683;53.360;9.736;2023-02-21T11:00:39;1.55;;;1.45;;
30647;SDS011;17683;53.360;9.736;2023-02-21T11:05:49;2.67;;;1.60;;
30647;SDS011;17683;53.360;9.736;2023-02-21T11:08:32;2.10;;;1.77;;
30647;SDS011;17683;53.360;9.736;2023-02-21T11:11:06;1.83;;;1.58;;
30647;SDS011;17683;53.360;9.736;2023-02-21T11:13:32;2.78;;;2.15;;
30647;SDS011;17683;53.360;9.736;2023-02-21T11:16:20;3.60;;;2.22;;
30647;SDS011;17683;53.360;9.736;2023-02-21T11:19:11;2.75;;;1.75;;
30647;SDS011;17683;53.360;9.736;2023-02-21T11:21:37;4.03;;;2.30;;
30647;SDS011;17683;53.360;9.736;2023-02-21T11:24:03;2.38;;;2.17;;
30647;SDS011;17683;53.360;9.736;2023-02-21T11:26:37;5.10;;;2.42;;
30647;SDS011;17683;53.360;9.736;2023-02-21T11:29:18;2.97;;;2.67;;
30647;SDS011;17683;53.360;9.736;2023-02-21T11:31:48;3.90;;;2.53;;
30647;SDS011;17683;53.360;9.736;2023-02-21T11:34:14;2.30;;;2.03;;
30647;SDS011;17683;53.360;9.736;2023-02-21T11:36:44;3.90;;;2.50;;
30647;SDS011;17683;53.360;9.736;2023-02-21T11:44:28;1.70;;;1.50;;
30647;SDS011;17683;53.360;9.736;2023-02-21T11:47:26;1.95;;;1.10;;
30647;SDS011;17683;53.360;9.736;2023-02-21T11:50:06;1.77;;;1.20;;
30647;SDS011;17683;53.360;9.736;2023-02-21T11:52:46;1.00;;;0.88;;
30647;SDS011;17683;53.360;9.736;2023-02-21T11:55:40;1.50;;;0.77;;
30647;SDS011;17683;53.360;9.736;2023-02-21T12:01:10;0.80;;;0.80;;
30647;SDS011;17683;53.360;9.736;2023-02-21T12:06:53;1.55;;;1.00;;
30647;SDS011;17683;53.360;9.736;2023-02-21T12:33:59;1.77;;;1.10;;
30647;SDS011;17683;53.360;9.736;2023-02-21T12:36:57;2.13;;;1.05;;
30647;SDS011;17683;53.360;9.736;2023-02-21T12:45:17;2.72;;;1.00;;
30647;SDS011;17683;53.360;9.736;2023-02-21T12:47:55;2.20;;;0.80;;
30647;SDS011;17683;53.360;9.736;2023-02-21T12:50:42;1.08;;;0.90;;
30647;SDS011;17683;53.360;9.736;2023-02-21T12:53:21;1.40;;;1.15;;
30647;SDS011;17683;53.360;9.736;2023-02-21T12:58:32;3.60;;;1.08;;
30647;SDS011;17683;53.360;9.736;2023-02-21T13:01:06;1.45;;;1.25;;
30647;SDS011;17683;53.360;9.736;2023-02-21T13:03:51;1.02;;;0.90;;
30647;SDS011;17683;53.360;9.736;2023-02-21T13:06:31;1.98;;;1.67;;
30647;SDS011;17683;53.360;9.736;2023-02-21T13:09:08;4.70;;;1.00;;
30647;SDS011;17683;53.360;9.736;2023-02-21T13:11:44;1.05;;;0.70;;
30647;SDS011;17683;53.360;9.736;2023-02-21T13:14:39;0.88;;;0.70;;
30647;SDS011;17683;53.360;9.736;2023-02-21T13:17:09;0.95;;;0.77;;
30647;SDS011;17683;53.360;9.736;2023-02-21T13:19:42;1.35;;;0.40;;
30647;SDS011;17683;53.360;9.736;2023-02-21T13:26:02;1.15;;;0.70;;
30647;SDS011;17683;53.360;9.736;2023-02-21T13:28:40;2.75;;;1.00;;
30647;SDS011;17683;53.360;9.736;2023-02-21T13:31:17;0.98;;;0.80;;
30647;SDS011;17683;53.360;9.736;2023-02-21T13:33:54;0.93;;;0.75;;
30647;SDS011;17683;53.360;9.736;2023-02-21T13:36:26;1.15;;;0.90;;
30647;SDS011;17683;53.360;9.736;2023-02-21T13:39:10;1.38;;;0.80;;
30647;SDS011;17683;53.360;9.736;2023-02-21T13:41:51;2.50;;;0.90;;
30647;SDS011;17683;53.360;9.736;2023-02-21T13:44:30;2.33;;;1.02;;
30647;SDS011;17683;53.360;9.736;2023-02-21T13:49:36;1.52;;;1.20;;
30647;SDS011;17683;53.360;9.736;2023-02-21T14:10:45;3.65;;;2.60;;
30647;SDS011;17683;53.360;9.736;2023-02-21T14:13:32;3.33;;;2.40;;
30647;SDS011;17683;53.360;9.736;2023-02-21T14:18:39;3.95;;;2.80;;
30647;SDS011;17683;53.360;9.736;2023-02-21T14:24:12;6.93;;;3.83;;
30647;SDS011;17683;53.360;9.736;2023-02-21T14:26:43;6.53;;;4.05;;
30647;SDS011;17683;53.360;9.736;2023-02-21T14:29:26;9.32;;;4.97;;
30647;SDS011;17683;53.360;9.736;2023-02-21T14:37:24;8.27;;;5.47;;
30647;SDS011;17683;53.360;9.736;2023-02-21T14:40:11;11.48;;;5.30;;
30647;SDS011;17683;53.360;9.736;2023-02-21T14:42:56;15.95;;;6.20;;
30647;SDS011;17683;53.360;9.736;2023-02-21T14:54:21;13.30;;;7.70;;
30647;SDS011;17683;53.360;9.736;2023-02-21T15:12:46;16.92;;;7.97;;
30647;SDS011;17683;53.360;9.736;2023-02-21T15:15:28;14.25;;;7.65;;
30647;SDS011;17683;53.360;9.736;2023-02-21T15:23:37;17.58;;;9.07;;
30647;SDS011;17683;53.360;9.736;2023-02-21T15:28:42;22.48;;;8.50;;
30647;SDS011;17683;53.360;9.736;2023-02-21T15:31:10;15.90;;;9.02;;
30647;SDS011;17683;53.360;9.736;2023-02-21T15:33:38;22.20;;;9.05;;
30647;SDS011;17683;53.360;9.736;2023-02-21T15:36:06;23.17;;;9.75;;
30647;SDS011;17683;53.360;9.736;2023-02-21T15:38:51;17.50;;;8.90;;
30647;SDS011;17683;53.360;9.736;2023-02-21T15:41:34;15.88;;;8.88;;
30647;SDS011;17683;53.360;9.736;2023-02-21T15:44:10;19.00;;;9.70;;
30647;SDS011;17683;53.360;9.736;2023-02-21T15:46:41;20.27;;;8.90;;
30647;SDS011;17683;53.360;9.736;2023-02-21T15:49:32;14.43;;;8.55;;
30647;SDS011;17683;53.360;9.736;2023-02-21T15:52:01;13.25;;;8.63;;
30647;SDS011;17683;53.360;9.736;2023-02-21T15:54:29;19.73;;;9.10;;
30647;SDS011;17683;53.360;9.736;2023-02-21T15:57:03;15.23;;;8.50;;
30647;SDS011;17683;53.360;9.736;2023-02-21T15:59:41;16.00;;;7.85;;
30647;SDS011;17683;53.360;9.736;2023-02-21T16:04:37;13.55;;;7.93;;
30647;SDS011;17683;53.360;9.736;2023-02-21T16:07:05;18.35;;;8.50;;
30647;SDS011;17683;53.360;9.736;2023-02-21T16:09:39;16.27;;;9.60;;
30647;SDS011;17683;53.360;9.736;2023-02-21T16:15:17;12.43;;;8.00;;
30647;SDS011;17683;53.360;9.736;2023-02-21T16:17:34;17.50;;;8.60;;
30647;SDS011;17683;53.360;9.736;2023-02-21T16:22:42;8.63;;;6.80;;
30647;SDS011;17683;53.360;9.736;2023-02-21T16:27:44;10.18;;;7.20;;
30647;SDS011;17683;53.360;9.736;2023-02-21T16:30:22;11.00;;;6.80;;
30647;SDS011;17683;53.360;9.736;2023-02-21T16:32:51;15.02;;;6.70;;
30647;SDS011;17683;53.360;9.736;2023-02-21T16:35:19;10.07;;;6.15;;
30647;SDS011;17683;53.360;9.736;2023-02-21T16:37:48;10.60;;;5.82;;
30647;SDS011;17683;53.360;9.736;2023-02-21T16:40:19;11.68;;;6.30;;
30647;SDS011;17683;53.360;9.736;2023-02-21T16:42:49;15.80;;;7.05;;
30647;SDS011;17683;53.360;9.736;2023-02-21T16:45:16;13.05;;;7.05;;
30647;SDS011;17683;53.360;9.736;2023-02-21T16:47:42;12.50;;;6.00;;
30647;SDS011;17683;53.360;9.736;2023-02-21T16:50:18;11.45;;;6.53;;
30647;SDS011;17683;53.360;9.736;2023-02-21T16:52:46;11.65;;;6.15;;
30647;SDS011;17683;53.360;9.736;2023-02-21T16:55:13;10.45;;;6.30;;
30647;SDS011;17683;53.360;9.736;2023-02-21T16:57:40;8.82;;;5.43;;
30647;SDS011;17683;53.360;9.736;2023-02-21T17:00:06;7.90;;;5.72;;
30647;SDS011;17683;53.360;9.736;2023-02-21T17:02:33;13.82;;;6.82;;
30647;SDS011;17683;53.360;9.736;2023-02-21T17:04:58;12.10;;;6.38;;
30647;SDS011;17683;53.360;9.736;2023-02-21T17:07:24;13.77;;;6.97;;
30647;SDS011;17683;53.360;9.736;2023-02-21T17:09:50;11.35;;;6.70;;
30647;SDS011;17683;53.360;9.736;2023-02-21T17:12:15;12.48;;;6.07;;
30647;SDS011;17683;53.360;9.736;2023-02-21T17:14:41;10.98;;;6.15;;
30647;SDS011;17683;53.360;9.736;2023-02-21T17:17:08;10.30;;;6.43;;
30647;SDS011;17683;53.360;9.736;2023-02-21T17:19:34;11.70;;;6.78;;
30647;SDS011;17683;53.360;9.736;2023-02-21T17:22:00;10.52;;;7.57;;
30647;SDS011;17683;53.360;9.736;2023-02-21T17:24:25;17.42;;;6.47;;
30647;SDS011;17683;53.360;9.736;2023-02-21T17:26:51;8.82;;;6.03;;
30647;SDS011;17683;53.360;9.736;2023-02-21T17:29:18;12.07;;;6.07;;
30647;SDS011;17683;53.360;9.736;2023-02-21T17:31:44;10.95;;;7.03;;
30647;SDS011;17683;53.360;9.736;2023-02-21T17:34:11;9.82;;;7.18;;
30647;SDS011;17683;53.360;9.736;2023-02-21T17:36:37;8.15;;;6.22;;
30647;SDS011;17683;53.360;9.736;2023-02-21T17:39:03;12.95;;;6.68;;
30647;SDS011;17683;53.360;9.736;2023-02-21T17:41:30;11.38;;;7.53;;
30647;SDS011;17683;53.360;9.736;2023-02-21T17:43:56;10.38;;;6.75;;
30647;SDS011;17683;53.360;9.736;2023-02-21T17:46:22;8.90;;;7.13;;
30647;SDS011;17683;53.360;9.736;2023-02-21T17:48:48;8.68;;;6.45;;
30647;SDS011;17683;53.360;9.736;2023-02-21T17:51:32;10.45;;;6.97;;
30647;SDS011;17683;53.360;9.736;2023-02-21T17:53:58;9.38;;;6.75;;
30647;SDS011;17683;53.360;9.736;2023-02-21T17:56:23;12.85;;;7.10;;
30647;SDS011;17683;53.360;9.736;2023-02-21T17:58:49;13.75;;;8.75;;
30647;SDS011;17683;53.360;9.736;2023-02-21T18:01:16;10.38;;;7.25;;
30647;SDS011;17683;53.360;9.736;2023-02-21T18:03:44;12.27;;;7.63;;
30647;SDS011;17683;53.360;9.736;2023-02-21T18:06:11;14.73;;;8.15;;
30647;SDS011;17683;53.360;9.736;2023-02-21T18:08:37;9.35;;;6.82;;
30647;SDS011;17683;53.360;9.736;2023-02-21T18:11:06;12.85;;;8.27;;
30647;SDS011;17683;53.360;9.736;2023-02-21T18:13:34;10.80;;;7.05;;
30647;SDS011;17683;53.360;9.736;2023-02-21T18:16:02;11.32;;;7.90;;
30647;SDS011;17683;53.360;9.736;2023-02-21T18:18:29;11.35;;;7.97;;
30647;SDS011;17683;53.360;9.736;2023-02-21T18:20:55;13.88;;;8.30;;
30647;SDS011;17683;53.360;9.736;2023-02-21T18:23:23;9.43;;;7.68;;
30647;SDS011;17683;53.360;9.736;2023-02-21T18:25:57;13.88;;;8.82;;